SCC544 KGSP-KCHS
Flight info
| Callsign | SCC544 |
|---|---|
| Flight time | N/A |
| Altitude | 11000 |
| Route | SOTHH CAE TRTLS OSPRI7 |
| Aircraft | B739/M-V/N |
Departure
| Time | 2026-04-20 20:37 |
|---|---|
| Airport | Greenville-Spartanburg International Airport (KGSP) |
Arrival
| Time | N/A |
|---|---|
| Airport | Charleston International Airport (KCHS) |
| Time | Latitude | Longitude | Altitude | Speed | Heading |
|---|---|---|---|---|---|
| 2026-04-20 20:24 | 34.89047 | -82.21853 | 957 ft | 0 kts | 127° |
| 2026-04-20 20:28 | 34.89054 | -82.21863 | 953 ft | 2 kts | 127° |
| 2026-04-20 20:28 | 34.89063 | -82.21879 | 953 ft | 2 kts | 127° |
| 2026-04-20 20:28 | 34.89074 | -82.21894 | 954 ft | 2 kts | 146° |
| 2026-04-20 20:28 | 34.89089 | -82.21897 | 956 ft | 2 kts | 204° |
| 2026-04-20 20:29 | 34.89094 | -82.21894 | 954 ft | 0 kts | 212° |
| 2026-04-20 20:31 | 34.89082 | -82.21904 | 954 ft | 4 kts | 212° |
| 2026-04-20 20:31 | 34.89055 | -82.21924 | 955 ft | 4 kts | 212° |
| 2026-04-20 20:32 | 34.89041 | -82.21935 | 955 ft | 0 kts | 212° |
| 2026-04-20 20:32 | 34.89032 | -82.21942 | 957 ft | 10 kts | 212° |
| 2026-04-20 20:33 | 34.89002 | -82.22021 | 956 ft | 12 kts | 305° |
| 2026-04-20 20:33 | 34.88983 | -82.22097 | 953 ft | 11 kts | 215° |
| 2026-04-20 20:33 | 34.88916 | -82.22149 | 957 ft | 11 kts | 212° |
| 2026-04-20 20:33 | 34.88852 | -82.22198 | 955 ft | 11 kts | 212° |
| 2026-04-20 20:34 | 34.88789 | -82.22245 | 956 ft | 10 kts | 212° |
| 2026-04-20 20:34 | 34.88750 | -82.22275 | 955 ft | 0 kts | 213° |
| 2026-04-20 20:35 | 34.88750 | -82.22276 | 955 ft | 1 kts | 213° |
| 2026-04-20 20:35 | 34.88726 | -82.22295 | 956 ft | 5 kts | 212° |
| 2026-04-20 20:35 | 34.88703 | -82.22324 | 955 ft | 7 kts | 245° |
| 2026-04-20 20:35 | 34.88720 | -82.22402 | 956 ft | 11 kts | 302° |
| 2026-04-20 20:36 | 34.88761 | -82.22479 | 958 ft | 11 kts | 304° |
| 2026-04-20 20:36 | 34.88791 | -82.22476 | 957 ft | 21 kts | 31° |
| 2026-04-20 20:36 | 34.89166 | -82.22191 | 956 ft | 103 kts | 31° |
| 2026-04-20 20:36 | 34.89971 | -82.21571 | 958 ft | 168 kts | 31° |
| 2026-04-20 20:37 | 34.91013 | -82.20782 | 1406 ft | 185 kts | 33° |
| 2026-04-20 20:37 | 34.92114 | -82.19883 | 2069 ft | 196 kts | 32° |
| 2026-04-20 20:37 | 34.93233 | -82.18910 | 2836 ft | 197 kts | 35° |
| 2026-04-20 20:37 | 34.94091 | -82.17544 | 3267 ft | 215 kts | 70° |
| 2026-04-20 20:38 | 34.94205 | -82.15725 | 3752 ft | 223 kts | 94° |
| 2026-04-20 20:38 | 34.94068 | -82.13806 | 4159 ft | 236 kts | 93° |
| 2026-04-20 20:38 | 34.93939 | -82.11739 | 4537 ft | 252 kts | 93° |
| 2026-04-20 20:38 | 34.93733 | -82.09541 | 4869 ft | 272 kts | 106° |
| 2026-04-20 20:39 | 34.92703 | -82.07591 | 5369 ft | 281 kts | 140° |
| 2026-04-20 20:39 | 34.91117 | -82.06129 | 5924 ft | 290 kts | 146° |
| 2026-04-20 20:39 | 34.89459 | -82.04703 | 6463 ft | 293 kts | 146° |
| 2026-04-20 20:39 | 34.87796 | -82.03255 | 6977 ft | 294 kts | 146° |
| 2026-04-20 20:40 | 34.86138 | -82.01776 | 7494 ft | 296 kts | 145° |
| 2026-04-20 20:40 | 34.84506 | -82.00285 | 8005 ft | 298 kts | 144° |
| 2026-04-20 20:40 | 34.82855 | -81.98746 | 8537 ft | 300 kts | 144° |
| 2026-04-20 20:40 | 34.81195 | -81.97175 | 9075 ft | 304 kts | 143° |
| 2026-04-20 20:41 | 34.79514 | -81.95569 | 9594 ft | 308 kts | 143° |
| 2026-04-20 20:41 | 34.77829 | -81.93947 | 10120 ft | 310 kts | 143° |
| 2026-04-20 20:41 | 34.76126 | -81.92301 | 10596 ft | 317 kts | 143° |
| 2026-04-20 20:41 | 34.74375 | -81.90606 | 11032 ft | 327 kts | 143° |
| 2026-04-20 20:42 | 34.72565 | -81.88850 | 11437 ft | 339 kts | 142° |
| 2026-04-20 20:42 | 34.70691 | -81.87034 | 11832 ft | 350 kts | 142° |
| 2026-04-20 20:42 | 34.68751 | -81.85148 | 12242 ft | 361 kts | 142° |
| 2026-04-20 20:42 | 34.66763 | -81.83214 | 12641 ft | 371 kts | 142° |
| 2026-04-20 20:43 | 34.64742 | -81.81250 | 13043 ft | 381 kts | 142° |
| 2026-04-20 20:43 | 34.62635 | -81.79203 | 13256 ft | 396 kts | 142° |
| 2026-04-20 20:43 | 34.60437 | -81.77070 | 13257 ft | 413 kts | 142° |
| 2026-04-20 20:43 | 34.58157 | -81.74859 | 13257 ft | 424 kts | 142° |
| 2026-04-20 20:44 | 34.55843 | -81.72616 | 13240 ft | 427 kts | 142° |
| 2026-04-20 20:44 | 34.53479 | -81.70326 | 13258 ft | 440 kts | 142° |
| 2026-04-20 20:44 | 34.51065 | -81.67990 | 13248 ft | 443 kts | 142° |
| 2026-04-20 20:44 | 34.48663 | -81.65667 | 13238 ft | 440 kts | 142° |
| 2026-04-20 20:45 | 34.46270 | -81.63353 | 13241 ft | 438 kts | 142° |
| 2026-04-20 20:45 | 34.43918 | -81.61083 | 13246 ft | 437 kts | 142° |
| 2026-04-20 20:45 | 34.41538 | -81.58786 | 13257 ft | 437 kts | 142° |
| 2026-04-20 20:45 | 34.39163 | -81.56497 | 13263 ft | 437 kts | 142° |
| 2026-04-20 20:46 | 34.36776 | -81.54198 | 13258 ft | 438 kts | 142° |
| 2026-04-20 20:46 | 34.34377 | -81.51889 | 13256 ft | 439 kts | 142° |
| 2026-04-20 20:46 | 34.31980 | -81.49584 | 13258 ft | 440 kts | 142° |
| 2026-04-20 20:46 | 34.29615 | -81.47311 | 13251 ft | 441 kts | 142° |
| 2026-04-20 20:47 | 34.27209 | -81.45001 | 13253 ft | 441 kts | 142° |
| 2026-04-20 20:47 | 34.24803 | -81.42691 | 13233 ft | 442 kts | 142° |
| 2026-04-20 20:47 | 34.22387 | -81.40374 | 12561 ft | 444 kts | 142° |
| 2026-04-20 20:47 | 34.19980 | -81.38037 | 11728 ft | 442 kts | 141° |
| 2026-04-20 20:48 | 34.17615 | -81.35678 | 11004 ft | 439 kts | 141° |
| 2026-04-20 20:48 | 34.15284 | -81.33443 | 10952 ft | 418 kts | 142° |
| 2026-04-20 20:48 | 34.13014 | -81.31309 | 10496 ft | 410 kts | 142° |
| 2026-04-20 20:48 | 34.10786 | -81.29211 | 10320 ft | 402 kts | 142° |
| 2026-04-20 20:49 | 34.08600 | -81.27118 | 10284 ft | 403 kts | 142° |
| 2026-04-20 20:49 | 34.06402 | -81.25004 | 10259 ft | 402 kts | 142° |
| 2026-04-20 20:49 | 34.04216 | -81.22911 | 10261 ft | 400 kts | 142° |
| 2026-04-20 20:49 | 34.02078 | -81.20916 | 10021 ft | 390 kts | 143° |
| 2026-04-20 20:50 | 33.99888 | -81.18973 | 9341 ft | 389 kts | 144° |
| 2026-04-20 20:50 | 33.97692 | -81.17024 | 8442 ft | 394 kts | 144° |
| 2026-04-20 20:50 | 33.95458 | -81.15057 | 7459 ft | 402 kts | 144° |
| 2026-04-20 20:50 | 33.93214 | -81.13080 | 6938 ft | 396 kts | 144° |
| 2026-04-20 20:51 | 33.91023 | -81.11183 | 6633 ft | 385 kts | 144° |
| 2026-04-20 20:51 | 33.88872 | -81.09312 | 6190 ft | 378 kts | 144° |
| 2026-04-20 20:51 | 33.86764 | -81.07451 | 5730 ft | 371 kts | 144° |
| 2026-04-20 20:51 | 33.84743 | -81.05614 | 5427 ft | 361 kts | 143° |
| 2026-04-20 20:52 | 33.82832 | -81.03686 | 4994 ft | 354 kts | 130° |
| 2026-04-20 20:52 | 33.81570 | -81.01174 | 4483 ft | 350 kts | 115° |
| 2026-04-20 20:52 | 33.80482 | -80.98622 | 4250 ft | 340 kts | 116° |
| 2026-04-20 20:52 | 33.79335 | -80.96185 | 3961 ft | 332 kts | 121° |
| 2026-04-20 20:53 | 33.78573 | -80.93622 | 3441 ft | 325 kts | 94° |
| 2026-04-20 20:53 | 33.78695 | -80.90861 | 1892 ft | 355 kts | 72° |
| 2026-04-20 20:53 | 33.80000 | -80.88768 | 2388 ft | 299 kts | 20° |
| 2026-04-20 20:53 | 33.81960 | -80.88818 | 2010 ft | 285 kts | 335° |
| 2026-04-20 20:54 | 33.83447 | -80.90280 | 1757 ft | 274 kts | 309° |
| 2026-04-20 20:54 | 33.84627 | -80.91937 | 1916 ft | 251 kts | 310° |
| 2026-04-20 20:54 | 33.85757 | -80.93509 | 1810 ft | 241 kts | 311° |
| 2026-04-20 20:54 | 33.86837 | -80.95012 | 1583 ft | 238 kts | 309° |
| 2026-04-20 20:55 | 33.87827 | -80.96524 | 1639 ft | 222 kts | 308° |
| 2026-04-20 20:55 | 33.88768 | -80.97913 | 1583 ft | 209 kts | 309° |
| 2026-04-20 20:55 | 33.89689 | -80.99246 | 1267 ft | 205 kts | 311° |
| 2026-04-20 20:55 | 33.90743 | -81.00367 | 917 ft | 207 kts | 333° |
| 2026-04-20 20:56 | 33.92210 | -81.00661 | 259 ft | 223 kts | 358° |
| 2026-04-20 20:56 | 33.93472 | -81.00816 | 126 ft | 100 kts | 274° |
| 2026-04-20 20:56 | 33.93526 | -81.00834 | 144 ft | 0 kts | 251° |
| 2026-04-20 20:56 | 33.93554 | -81.00845 | 137 ft | 0 kts | 251° |
| 2026-04-20 21:00 | 33.93554 | -81.00844 | 165 ft | 0 kts | 255° |